createdAt,value
2023-03-14T00:00:16.035Z,50.15
2023-03-14T00:02:44.965Z,54.75
2023-03-14T00:05:13.813Z,73.63
2023-03-14T00:07:42.902Z,83.90
2023-03-14T00:10:15.865Z,93.15
2023-03-14T00:12:45.192Z,113.40
2023-03-14T00:15:14.857Z,113.47
2023-03-14T00:17:46.239Z,118.40
2023-03-14T00:20:15.468Z,141.45
2023-03-14T00:22:44.475Z,150.93
2023-03-14T00:25:14.428Z,163.55
2023-03-14T00:27:43.236Z,197.25
2023-03-14T00:30:15.219Z,194.65
2023-03-14T00:32:44.574Z,217.50
2023-03-14T00:35:13.478Z,213.68
2023-03-14T00:37:42.674Z,215.90
2023-03-14T00:40:12.065Z,191.40
2023-03-14T00:42:41.409Z,169.85
2023-03-14T00:45:12.052Z,198.38
2023-03-14T00:47:41.248Z,165.40
2023-03-14T00:50:10.829Z,171.30
2023-03-14T00:52:41.209Z,166.02
2023-03-14T00:55:11.418Z,161.25
2023-03-14T00:57:40.208Z,150.00
2023-03-14T01:00:15.497Z,145.30
2023-03-14T01:02:48.039Z,159.15
2023-03-14T01:05:21.412Z,157.77
2023-03-14T01:07:53.009Z,149.35
2023-03-14T01:10:24.853Z,167.55
2023-03-14T01:12:57.492Z,145.05
2023-03-14T01:15:28.334Z,140.68
2023-03-14T01:17:59.487Z,117.57
2023-03-14T01:20:32.590Z,113.65
2023-03-14T01:23:02.428Z,111.82
2023-03-14T01:25:32.263Z,112.35
2023-03-14T01:28:02.787Z,114.65
2023-03-14T01:30:33.438Z,108.75
2023-03-14T01:33:03.494Z,108.63
2023-03-14T01:35:33.543Z,120.72
2023-03-14T01:38:03.575Z,90.18
2023-03-14T01:40:33.503Z,99.63
2023-03-14T01:43:16.214Z,94.85
2023-03-14T01:46:24.733Z,83.35
2023-03-14T01:49:17.585Z,83.72
2023-03-14T01:52:03.534Z,77.53
2023-03-14T01:54:38.764Z,99.55
2023-03-14T01:57:23.190Z,85.43
2023-03-14T01:59:58.966Z,82.28
2023-03-14T02:02:30.891Z,88.28
2023-03-14T02:05:02.626Z,82.40
2023-03-14T02:07:56.120Z,97.97
2023-03-14T02:10:41.900Z,97.10
2023-03-14T02:16:03.070Z,98.35
2023-03-14T02:18:44.967Z,114.47
2023-03-14T02:21:44.786Z,110.38
2023-03-14T02:24:19.710Z,133.60
2023-03-14T02:27:18.907Z,166.70
2023-03-14T02:29:55.028Z,163.45
2023-03-14T02:32:26.458Z,166.13
2023-03-14T02:35:00.201Z,171.85
2023-03-14T02:37:38.368Z,178.50
2023-03-14T02:40:09.103Z,207.52
2023-03-14T02:42:39.749Z,168.48
2023-03-14T02:45:12.299Z,326.02
2023-03-14T02:47:56.298Z,175.00
2023-03-14T02:50:33.274Z,179.35
2023-03-14T02:53:03.385Z,127.78
2023-03-14T02:55:34.515Z,137.32
2023-03-14T02:58:10.290Z,120.75
2023-03-14T03:00:40.401Z,110.28
2023-03-14T03:03:12.895Z,106.75
2023-03-14T03:05:44.768Z,119.72
2023-03-14T03:08:14.238Z,109.18
2023-03-14T03:10:44.285Z,115.32
2023-03-14T03:13:14.220Z,106.00
2023-03-14T03:15:44.851Z,104.90
2023-03-14T03:18:14.740Z,111.35
2023-03-14T03:20:47.334Z,75.88
2023-03-14T03:23:17.370Z,77.25
2023-03-14T03:25:52.350Z,77.32
2023-03-14T03:28:22.953Z,71.15
2023-03-14T03:30:53.951Z,65.50
2023-03-14T03:33:25.824Z,50.72
2023-03-14T03:35:56.783Z,54.50
2023-03-14T03:38:32.294Z,65.55
2023-03-14T03:41:11.233Z,58.13
2023-03-14T03:43:41.808Z,43.05
2023-03-14T03:46:13.769Z,42.25
2023-03-14T03:48:43.741Z,51.38
2023-03-14T03:51:17.532Z,55.75
2023-03-14T03:53:47.597Z,41.55
2023-03-14T03:56:22.522Z,33.42
2023-03-14T03:58:53.228Z,33.88
2023-03-14T04:01:23.210Z,32.30
2023-03-14T04:03:56.914Z,43.70
2023-03-14T04:06:28.177Z,80.82
2023-03-14T04:09:00.974Z,41.67
2023-03-14T04:11:39.938Z,61.42
2023-03-14T04:14:29.398Z,41.28
2023-03-14T04:17:25.400Z,50.75
2023-03-14T04:19:56.052Z,63.90
2023-03-14T04:22:33.665Z,94.88
2023-03-14T04:25:05.574Z,47.55
2023-03-14T04:27:39.205Z,245.25
2023-03-14T04:30:17.494Z,42.90
2023-03-14T04:32:53.221Z,34.70
2023-03-14T04:35:26.448Z,31.95
2023-03-14T04:38:05.470Z,45.88
2023-03-14T04:40:38.586Z,46.92
2023-03-14T04:43:11.624Z,36.95
2023-03-14T04:45:47.429Z,46.05
2023-03-14T04:48:16.857Z,35.85
2023-03-14T04:50:45.638Z,44.38
2023-03-14T04:53:15.133Z,31.10
2023-03-14T04:55:51.776Z,44.67
2023-03-14T04:58:23.513Z,28.63
2023-03-14T05:00:53.873Z,33.47
2023-03-14T05:04:00.927Z,43.22
2023-03-14T05:06:50.123Z,38.92
2023-03-14T05:09:36.481Z,32.72
2023-03-14T05:12:43.627Z,36.05
2023-03-14T05:15:44.527Z,36.35
2023-03-14T05:18:45.111Z,29.60
2023-03-14T05:21:39.321Z,26.40
2023-03-14T05:24:37.707Z,44.47
2023-03-14T05:27:41.906Z,36.08
2023-03-14T05:30:35.568Z,26.60
2023-03-14T05:33:07.716Z,34.55
2023-03-14T05:35:55.370Z,44.88
2023-03-14T05:38:42.800Z,40.35
2023-03-14T05:41:31.865Z,39.20
2023-03-14T05:44:19.146Z,89.93
2023-03-14T05:46:57.304Z,37.35
2023-03-14T05:49:44.822Z,38.25
2023-03-14T05:52:33.796Z,45.22
2023-03-14T05:55:11.080Z,43.28
2023-03-14T05:57:56.158Z,36.60
2023-03-14T06:00:36.747Z,58.97
2023-03-14T06:03:28.789Z,62.50
2023-03-14T06:05:57.952Z,59.25
2023-03-14T06:08:27.609Z,41.50
2023-03-14T06:10:56.660Z,53.70
2023-03-14T06:13:30.536Z,38.20
2023-03-14T06:16:03.154Z,39.72
2023-03-14T06:18:32.947Z,38.25
2023-03-14T06:21:02.111Z,54.95
2023-03-14T06:23:33.665Z,52.58
2023-03-14T06:26:03.710Z,45.25
2023-03-14T06:28:33.175Z,45.67
2023-03-14T06:31:04.197Z,48.75
2023-03-14T06:33:40.380Z,46.83
2023-03-14T06:36:10.611Z,42.17
2023-03-14T06:38:43.048Z,73.05
2023-03-14T06:41:12.624Z,49.25
2023-03-14T06:43:44.594Z,51.10
2023-03-14T06:46:18.028Z,69.53
2023-03-14T06:48:50.422Z,53.85
2023-03-14T06:51:20.303Z,59.85
2023-03-14T06:53:50.509Z,40.60
2023-03-14T06:56:22.529Z,65.47
2023-03-14T06:58:52.255Z,64.30
2023-03-14T07:03:59.491Z,60.03
2023-03-14T07:06:31.339Z,67.45
2023-03-14T07:09:01.780Z,61.67
2023-03-14T07:11:32.188Z,44.97
2023-03-14T07:14:01.506Z,38.38
2023-03-14T07:16:33.362Z,36.40
2023-03-14T07:19:03.579Z,43.13
2023-03-14T07:21:34.789Z,48.55
2023-03-14T07:24:09.635Z,51.35
2023-03-14T07:26:39.577Z,50.20
2023-03-14T07:29:08.945Z,57.42
2023-03-14T07:31:38.673Z,25.50
2023-03-14T07:34:07.983Z,33.17
2023-03-14T07:36:40.928Z,43.80
2023-03-14T07:39:10.374Z,21.05
2023-03-14T07:42:02.933Z,27.77
2023-03-14T07:44:48.594Z,34.13
2023-03-14T07:47:18.028Z,39.40
2023-03-14T07:49:47.234Z,34.13
2023-03-14T07:52:16.454Z,32.13
2023-03-14T07:54:45.281Z,34.03
2023-03-14T07:57:14.274Z,44.22
2023-03-14T07:59:43.213Z,42.28
2023-03-14T08:02:15.950Z,36.75
2023-03-14T08:04:45.377Z,23.20
2023-03-14T08:07:14.245Z,57.50
2023-03-14T08:09:43.711Z,52.17
2023-03-14T08:12:12.627Z,38.40
2023-03-14T08:14:41.525Z,54.47
2023-03-14T08:17:11.037Z,46.03
2023-03-14T08:19:40.115Z,43.90
2023-03-14T08:22:08.858Z,36.85
2023-03-14T08:24:38.000Z,30.33
2023-03-14T08:27:08.791Z,45.30
2023-03-14T08:29:38.776Z,33.33
2023-03-14T08:32:08.021Z,32.08
2023-03-14T08:34:37.205Z,20.00
2023-03-14T08:37:10.866Z,23.30
2023-03-14T08:39:45.445Z,126.55
2023-03-14T08:42:14.153Z,38.78
2023-03-14T08:44:43.632Z,42.45
2023-03-14T08:47:12.624Z,32.83
2023-03-14T08:49:44.350Z,34.08
2023-03-14T08:52:13.712Z,30.25
2023-03-14T08:54:48.989Z,27.23
2023-03-14T08:57:18.277Z,41.72
2023-03-14T08:59:46.977Z,34.22
2023-03-14T09:02:16.625Z,45.03
2023-03-14T09:04:46.501Z,51.47
2023-03-14T09:07:15.520Z,46.30
2023-03-14T09:09:44.252Z,40.25
2023-03-14T09:12:14.122Z,51.10
2023-03-14T09:14:42.786Z,60.92
2023-03-14T09:17:11.812Z,73.85
2023-03-14T09:19:40.637Z,69.15
2023-03-14T09:22:09.431Z,55.45
2023-03-14T09:24:38.520Z,62.95
2023-03-14T09:27:07.659Z,63.08
2023-03-14T09:29:39.576Z,80.07
2023-03-14T09:34:37.586Z,86.03
2023-03-14T09:37:06.972Z,62.70
2023-03-14T09:39:35.715Z,76.57
2023-03-14T09:42:08.455Z,67.90
2023-03-14T09:44:44.902Z,71.95
2023-03-14T09:47:16.451Z,78.80
2023-03-14T09:49:45.454Z,63.13
2023-03-14T09:52:19.064Z,33.30
2023-03-14T09:54:54.967Z,31.88
2023-03-14T09:57:26.823Z,16.85
2023-03-14T10:00:09.870Z,22.25
2023-03-14T10:02:39.398Z,65.60
2023-03-14T10:05:17.900Z,45.58
2023-03-14T10:07:46.957Z,35.10
2023-03-14T10:10:21.050Z,20.15
2023-03-14T10:12:58.342Z,31.02
2023-03-14T10:15:32.828Z,36.33
2023-03-14T10:18:06.154Z,19.83
2023-03-14T10:20:40.817Z,31.27
2023-03-14T10:23:26.139Z,33.38
2023-03-14T10:26:26.148Z,29.63
2023-03-14T10:29:03.540Z,34.67
2023-03-14T10:34:25.292Z,38.25
2023-03-14T10:37:08.534Z,42.55
2023-03-14T10:39:54.364Z,35.90
2023-03-14T10:42:36.026Z,29.05
2023-03-14T10:45:09.587Z,38.65
2023-03-14T10:47:50.033Z,43.72
2023-03-14T10:50:31.964Z,35.95
2023-03-14T10:53:07.886Z,44.22
2023-03-14T10:55:44.737Z,41.35
2023-03-14T10:58:24.343Z,39.13
2023-03-14T11:01:02.687Z,41.08
2023-03-14T11:03:36.026Z,48.33
2023-03-14T11:06:14.922Z,45.28
2023-03-14T11:09:09.694Z,45.17
2023-03-14T11:11:42.064Z,35.08
2023-03-14T11:14:34.354Z,37.10
2023-03-14T11:17:14.962Z,56.75
2023-03-14T11:19:43.992Z,54.83
2023-03-14T11:22:42.106Z,58.10
2023-03-14T11:25:22.015Z,53.05
2023-03-14T11:28:18.584Z,68.72
2023-03-14T11:31:01.046Z,68.80
2023-03-14T11:34:14.045Z,91.85
2023-03-14T11:37:30.439Z,85.05
2023-03-14T11:40:08.853Z,60.47
2023-03-14T11:42:38.160Z,66.22
2023-03-14T11:45:17.138Z,37.50
2023-03-14T11:47:50.652Z,36.72
2023-03-14T11:50:25.324Z,40.40
2023-03-14T11:53:05.904Z,43.60
2023-03-14T11:55:40.861Z,43.85
2023-03-14T11:58:19.021Z,44.28
2023-03-14T12:00:51.077Z,87.72
2023-03-14T12:03:32.567Z,36.75
2023-03-14T12:06:04.613Z,102.50
2023-03-14T12:08:50.046Z,72.03
2023-03-14T12:11:46.681Z,37.13
2023-03-14T12:14:28.775Z,66.90
2023-03-14T12:17:17.589Z,48.47
2023-03-14T12:19:49.001Z,55.03
2023-03-14T12:22:37.301Z,61.63
2023-03-14T12:25:17.173Z,55.45
2023-03-14T12:27:50.586Z,61.63
2023-03-14T12:30:43.635Z,40.65
2023-03-14T12:33:12.515Z,39.92
2023-03-14T12:35:51.329Z,51.00
2023-03-14T12:38:38.248Z,65.93
2023-03-14T12:41:37.575Z,36.08
2023-03-14T12:44:31.297Z,43.15
2023-03-14T12:47:17.045Z,50.13
2023-03-14T12:49:51.430Z,37.33
2023-03-14T12:52:47.347Z,59.30
2023-03-14T12:55:31.296Z,62.78
2023-03-14T12:58:00.227Z,67.15
2023-03-14T13:00:37.926Z,62.65
2023-03-14T13:03:29.953Z,80.50
2023-03-14T13:06:01.436Z,69.65
2023-03-14T13:08:40.549Z,63.53
2023-03-14T13:11:22.105Z,81.35
2023-03-14T13:13:58.377Z,87.28
2023-03-14T13:16:29.818Z,60.45
2023-03-14T13:19:25.664Z,51.67
2023-03-14T13:22:03.779Z,50.35
2023-03-14T13:24:36.819Z,56.55
2023-03-14T13:27:05.881Z,51.05
2023-03-14T13:29:35.055Z,48.33
2023-03-14T13:32:20.868Z,49.90
2023-03-14T13:34:50.629Z,64.57
2023-03-14T13:37:23.660Z,85.32
2023-03-14T13:39:54.438Z,70.07
2023-03-14T13:42:28.044Z,74.40
2023-03-14T13:44:58.980Z,63.28
2023-03-14T13:47:28.911Z,64.15
2023-03-14T13:49:58.037Z,63.80
2023-03-14T13:52:40.395Z,43.40
2023-03-14T13:55:17.986Z,51.88
2023-03-14T13:57:49.669Z,55.42
2023-03-14T14:00:29.686Z,57.95
2023-03-14T14:03:02.793Z,48.08
2023-03-14T14:05:33.956Z,48.72
2023-03-14T14:08:06.303Z,38.05
2023-03-14T14:10:38.279Z,65.95
2023-03-14T14:13:12.550Z,52.00
2023-03-14T14:15:49.196Z,61.83
2023-03-14T14:18:23.165Z,68.70
2023-03-14T14:20:52.493Z,49.80
2023-03-14T14:23:28.555Z,52.83
2023-03-14T14:25:59.783Z,47.00
2023-03-14T14:28:40.282Z,51.30
2023-03-14T14:31:24.885Z,57.40
2023-03-14T14:34:06.338Z,45.47
2023-03-14T14:36:54.017Z,44.17
2023-03-14T14:39:28.132Z,56.10
2023-03-14T14:41:57.380Z,48.05
2023-03-14T14:44:28.884Z,48.95
2023-03-14T14:47:00.900Z,49.15
2023-03-14T14:49:35.230Z,73.97
2023-03-14T14:52:18.231Z,102.78
2023-03-14T14:54:48.613Z,90.65
2023-03-14T14:57:29.079Z,49.00
2023-03-14T15:00:02.986Z,78.30
2023-03-14T15:02:47.339Z,55.80
2023-03-14T15:05:18.910Z,75.43
2023-03-14T15:07:48.530Z,75.03
2023-03-14T15:10:25.632Z,74.22
2023-03-14T15:12:54.856Z,84.95
2023-03-14T15:15:23.740Z,77.95
2023-03-14T15:17:52.986Z,73.18
2023-03-14T15:20:25.312Z,66.47
2023-03-14T15:22:54.662Z,60.47
2023-03-14T15:25:43.864Z,74.90
2023-03-14T15:28:30.469Z,76.95
2023-03-14T15:31:01.081Z,93.93
2023-03-14T15:33:30.872Z,71.57
2023-03-14T15:35:59.641Z,49.60
2023-03-14T15:38:28.604Z,57.10
2023-03-14T15:40:57.493Z,53.40
2023-03-14T15:43:26.405Z,59.05
2023-03-14T15:45:55.166Z,66.28
2023-03-14T15:48:24.909Z,64.82
2023-03-14T15:50:53.624Z,79.05
2023-03-14T15:53:22.455Z,121.22
2023-03-14T15:55:52.842Z,155.10
2023-03-14T15:58:22.665Z,120.03
2023-03-14T16:00:52.228Z,124.85
2023-03-14T16:03:21.297Z,170.20
2023-03-14T16:05:50.311Z,125.93
2023-03-14T16:08:19.086Z,111.22
2023-03-14T16:10:48.673Z,123.97
2023-03-14T16:13:17.898Z,77.22
2023-03-14T16:16:05.195Z,71.85
2023-03-14T16:18:36.446Z,91.60
2023-03-14T16:21:14.465Z,99.18
2023-03-14T16:23:43.831Z,97.78
2023-03-14T16:26:16.442Z,83.40
2023-03-14T16:28:46.753Z,87.63
2023-03-14T16:31:22.248Z,78.85
2023-03-14T16:33:51.466Z,98.22
2023-03-14T16:36:20.458Z,122.13
2023-03-14T16:38:50.631Z,74.18
2023-03-14T16:41:21.669Z,63.47
2023-03-14T16:43:53.195Z,76.47
2023-03-14T16:46:23.274Z,82.20
2023-03-14T16:48:52.641Z,67.07
2023-03-14T16:51:22.390Z,89.45
2023-03-14T16:53:51.884Z,73.28
2023-03-14T16:56:21.224Z,105.40
2023-03-14T16:58:52.233Z,207.32
2023-03-14T17:01:21.987Z,195.52
2023-03-14T17:03:53.071Z,147.85
2023-03-14T17:06:27.480Z,98.40
2023-03-14T17:08:58.706Z,104.55
2023-03-14T17:11:27.628Z,99.57
2023-03-14T17:13:56.436Z,126.45
2023-03-14T17:16:25.424Z,110.60
2023-03-14T17:18:54.211Z,80.57
2023-03-14T17:21:24.988Z,125.57
2023-03-14T17:23:54.123Z,77.53
2023-03-14T17:26:23.660Z,94.57
2023-03-14T17:28:52.968Z,88.10
2023-03-14T17:31:24.681Z,84.65
2023-03-14T17:33:54.175Z,101.20
2023-03-14T17:36:31.048Z,77.22
2023-03-14T17:39:00.336Z,86.32
2023-03-14T17:41:29.795Z,78.10
2023-03-14T17:43:58.993Z,82.07
2023-03-14T17:46:28.137Z,90.65
2023-03-14T17:48:57.090Z,78.38
2023-03-14T17:51:25.929Z,68.05
2023-03-14T17:53:54.871Z,76.97
2023-03-14T17:56:23.523Z,72.22
2023-03-14T17:58:53.371Z,74.43
2023-03-14T18:01:22.785Z,87.40
2023-03-14T18:03:57.181Z,72.60
2023-03-14T18:06:28.093Z,78.25
2023-03-14T18:08:57.848Z,74.68
2023-03-14T18:11:27.299Z,85.15
2023-03-14T18:13:56.229Z,72.57
2023-03-14T18:16:25.164Z,87.20
2023-03-14T18:18:54.924Z,78.82
2023-03-14T18:21:23.912Z,78.82
2023-03-14T18:23:52.678Z,74.75
2023-03-14T18:26:22.424Z,94.07
2023-03-14T18:28:51.580Z,68.53
2023-03-14T18:31:26.046Z,62.03
2023-03-14T18:33:57.882Z,69.55
2023-03-14T18:36:27.752Z,93.85
2023-03-14T18:38:57.559Z,80.40
2023-03-14T18:41:27.802Z,79.95
2023-03-14T18:43:56.697Z,86.93
2023-03-14T18:46:25.559Z,73.90
2023-03-14T18:48:57.755Z,76.70
2023-03-14T18:51:29.839Z,73.60
2023-03-14T18:54:09.984Z,87.30
2023-03-14T18:56:42.324Z,70.10
2023-03-14T18:59:15.273Z,87.70
2023-03-14T19:01:44.461Z,76.53
2023-03-14T19:04:13.403Z,77.13
2023-03-14T19:06:42.686Z,104.90
2023-03-14T19:09:16.228Z,89.30
2023-03-14T19:11:45.317Z,138.75
2023-03-14T19:14:16.806Z,173.80
2023-03-14T19:16:46.121Z,147.80
2023-03-14T19:19:15.470Z,125.30
2023-03-14T19:21:44.459Z,107.75
2023-03-14T19:24:19.488Z,93.10
2023-03-14T19:26:48.880Z,83.78
2023-03-14T19:29:18.252Z,93.72
2023-03-14T19:31:47.410Z,95.97
2023-03-14T19:34:16.158Z,82.45
2023-03-14T19:36:45.175Z,89.43
2023-03-14T19:39:13.949Z,75.68
2023-03-14T19:41:42.898Z,80.38
2023-03-14T19:44:14.212Z,70.70
2023-03-14T19:46:43.089Z,73.05
2023-03-14T19:49:12.381Z,95.78
2023-03-14T19:51:42.655Z,85.35
2023-03-14T19:54:11.641Z,89.32
2023-03-14T19:56:41.236Z,99.25
2023-03-14T19:59:10.402Z,89.20
2023-03-14T20:01:39.649Z,79.10
2023-03-14T20:04:08.859Z,103.55
2023-03-14T20:06:37.974Z,94.47
2023-03-14T20:09:06.968Z,89.60
2023-03-14T20:11:41.215Z,83.80
2023-03-14T20:14:10.992Z,111.95
2023-03-14T20:16:40.136Z,149.18
2023-03-14T20:19:11.327Z,123.70
2023-03-14T20:21:40.344Z,96.40
2023-03-14T20:24:09.311Z,94.63
2023-03-14T20:26:39.417Z,91.78
2023-03-14T20:29:08.559Z,89.70
2023-03-14T20:31:39.003Z,91.80
2023-03-14T20:34:08.194Z,95.80
2023-03-14T20:36:37.257Z,70.90
2023-03-14T20:39:06.628Z,89.30
2023-03-14T20:41:37.887Z,96.72
2023-03-14T20:44:09.851Z,90.43
2023-03-14T20:46:39.618Z,103.68
2023-03-14T20:49:08.622Z,133.70
2023-03-14T20:51:37.648Z,105.88
2023-03-14T20:54:08.421Z,89.47
2023-03-14T20:56:37.310Z,84.82
2023-03-14T20:59:06.285Z,88.38
2023-03-14T21:04:20.970Z,107.53
2023-03-14T21:06:49.767Z,97.55
2023-03-14T21:09:18.634Z,101.90
2023-03-14T21:11:48.149Z,106.15
2023-03-14T21:14:20.774Z,98.65
2023-03-14T21:19:19.119Z,100.28
2023-03-14T21:21:48.291Z,114.00
2023-03-14T21:24:17.626Z,152.80
2023-03-14T21:26:47.624Z,191.00
2023-03-14T21:29:16.428Z,134.45
2023-03-14T21:31:45.527Z,160.45
2023-03-14T21:34:14.529Z,209.73
2023-03-14T21:36:43.726Z,178.73
2023-03-14T21:39:12.503Z,137.90
2023-03-14T21:41:41.417Z,140.95
2023-03-14T21:44:10.178Z,120.50
2023-03-14T21:46:39.152Z,115.47
2023-03-14T21:49:07.871Z,108.97
2023-03-14T21:51:36.985Z,115.40
2023-03-14T21:54:10.983Z,111.78
2023-03-14T21:56:40.181Z,85.18
2023-03-14T21:59:09.284Z,91.75
2023-03-14T22:01:38.298Z,83.30
2023-03-14T22:04:07.184Z,90.63
2023-03-14T22:06:36.114Z,93.28
2023-03-14T22:09:05.113Z,97.95
2023-03-14T22:11:34.086Z,92.78
2023-03-14T22:14:02.815Z,94.60
2023-03-14T22:16:31.848Z,97.10
2023-03-14T22:19:00.807Z,96.00
2023-03-14T22:21:29.688Z,95.90
2023-03-14T22:23:58.485Z,95.38
2023-03-14T22:26:27.457Z,99.35
2023-03-14T22:28:56.148Z,88.03
2023-03-14T22:31:25.388Z,103.82
2023-03-14T22:33:54.243Z,93.60
2023-03-14T22:36:23.281Z,118.70
2023-03-14T22:38:51.989Z,105.45
2023-03-14T22:41:20.958Z,105.95
2023-03-14T22:43:50.886Z,107.70
2023-03-14T22:46:19.929Z,102.20
2023-03-14T22:48:48.705Z,104.28
2023-03-14T22:51:17.699Z,103.82
2023-03-14T22:53:46.993Z,98.22
2023-03-14T22:56:15.936Z,101.65
2023-03-14T22:58:44.653Z,96.70
2023-03-14T23:01:14.610Z,76.35
2023-03-14T23:03:43.421Z,97.07
2023-03-14T23:06:12.483Z,79.95
2023-03-14T23:08:41.125Z,93.38
2023-03-14T23:11:10.371Z,82.47
2023-03-14T23:13:39.048Z,97.97
2023-03-14T23:16:09.139Z,93.57
2023-03-14T23:18:40.747Z,81.47
2023-03-14T23:21:13.162Z,87.63
2023-03-14T23:26:12.771Z,82.53
2023-03-14T23:28:43.470Z,81.20
2023-03-14T23:31:15.363Z,81.03
2023-03-14T23:33:46.071Z,97.50
2023-03-14T23:36:16.614Z,82.35
2023-03-14T23:38:47.065Z,89.85
2023-03-14T23:41:16.663Z,100.53
2023-03-14T23:43:49.565Z,93.82
2023-03-14T23:46:18.575Z,86.07
2023-03-14T23:48:47.613Z,100.40
2023-03-14T23:51:17.621Z,104.78
2023-03-14T23:53:46.301Z,103.63
2023-03-14T23:56:16.488Z,105.43
2023-03-14T23:58:45.631Z,84.85
